createdAt,value
2023-03-10T00:01:34.886Z,55
2023-03-10T00:03:14.645Z,55
2023-03-10T00:04:54.422Z,54
2023-03-10T00:06:34.307Z,54
2023-03-10T00:08:13.925Z,54
2023-03-10T00:09:53.693Z,55
2023-03-10T00:11:33.498Z,55
2023-03-10T00:13:13.247Z,54
2023-03-10T00:14:52.993Z,54
2023-03-10T00:16:32.878Z,54
2023-03-10T00:18:12.537Z,55
2023-03-10T00:19:52.279Z,55
2023-03-10T00:21:32.116Z,55
2023-03-10T00:23:11.815Z,55
2023-03-10T00:24:51.589Z,54
2023-03-10T00:26:31.349Z,55
2023-03-10T00:28:11.100Z,55
2023-03-10T00:29:50.855Z,54
2023-03-10T00:31:30.617Z,54
2023-03-10T00:33:10.396Z,54
2023-03-10T00:34:50.172Z,54
2023-03-10T00:36:29.928Z,55
2023-03-10T00:38:09.679Z,54
2023-03-10T00:39:49.453Z,54
2023-03-10T00:41:29.230Z,54
2023-03-10T00:43:08.980Z,54
2023-03-10T00:44:48.784Z,54
2023-03-10T00:46:28.516Z,54
2023-03-10T00:48:08.272Z,54
2023-03-10T00:49:48.034Z,54
2023-03-10T00:51:27.802Z,54
2023-03-10T00:53:07.563Z,54
2023-03-10T00:54:47.350Z,54
2023-03-10T00:56:27.080Z,54
2023-03-10T00:58:06.960Z,54
2023-03-10T00:59:46.619Z,55
2023-03-10T01:01:26.387Z,54
2023-03-10T01:03:06.164Z,54
2023-03-10T01:04:45.925Z,54
2023-03-10T01:06:25.680Z,54
2023-03-10T01:08:05.487Z,55
2023-03-10T01:09:45.318Z,54
2023-03-10T01:11:25.020Z,54
2023-03-10T01:13:04.722Z,54
2023-03-10T01:14:44.496Z,54
2023-03-10T01:16:24.319Z,55
2023-03-10T01:18:04.153Z,55
2023-03-10T01:19:43.898Z,55
2023-03-10T01:21:23.723Z,55
2023-03-10T01:23:03.448Z,54
2023-03-10T01:24:43.087Z,54
2023-03-10T01:26:22.890Z,54
2023-03-10T01:28:02.635Z,54
2023-03-10T01:29:42.373Z,54
2023-03-10T01:31:22.281Z,54
2023-03-10T01:33:01.910Z,55
2023-03-10T01:34:41.666Z,55
2023-03-10T01:36:21.476Z,55
2023-03-10T01:38:01.176Z,55
2023-03-10T01:39:41.043Z,55
2023-03-10T01:41:20.736Z,55
2023-03-10T01:43:00.516Z,55
2023-03-10T01:44:40.319Z,54
2023-03-10T01:46:19.995Z,54
2023-03-10T01:47:59.784Z,55
2023-03-10T01:49:39.631Z,55
2023-03-10T01:51:19.297Z,55
2023-03-10T01:52:59.059Z,55
2023-03-10T01:54:38.841Z,55
2023-03-10T01:56:18.585Z,55
2023-03-10T01:57:58.386Z,55
2023-03-10T01:59:38.175Z,54
2023-03-10T02:01:17.893Z,54
2023-03-10T02:02:57.635Z,54
2023-03-10T02:04:37.413Z,54
2023-03-10T02:06:17.161Z,54
2023-03-10T02:07:56.926Z,54
2023-03-10T02:09:36.697Z,55
2023-03-10T02:11:16.504Z,55
2023-03-10T02:12:56.284Z,54
2023-03-10T02:14:36.018Z,54
2023-03-10T02:16:15.754Z,54
2023-03-10T02:17:55.571Z,54
2023-03-10T02:19:35.284Z,55
2023-03-10T02:21:15.048Z,54
2023-03-10T02:22:54.826Z,54
2023-03-10T02:24:34.564Z,54
2023-03-10T02:26:14.341Z,55
2023-03-10T02:27:54.100Z,55
2023-03-10T02:29:33.854Z,54
2023-03-10T02:31:13.631Z,54
2023-03-10T02:32:53.454Z,54
2023-03-10T02:34:33.182Z,54
2023-03-10T02:36:12.923Z,54
2023-03-10T02:37:52.691Z,54
2023-03-10T02:39:32.439Z,54
2023-03-10T02:41:12.200Z,54
2023-03-10T02:42:51.975Z,54
2023-03-10T02:44:31.739Z,54
2023-03-10T02:46:11.505Z,54
2023-03-10T02:47:51.261Z,54
2023-03-10T02:49:31.065Z,54
2023-03-10T02:51:10.794Z,54
2023-03-10T02:52:50.547Z,54
2023-03-10T02:54:30.329Z,54
2023-03-10T02:56:10.083Z,54
2023-03-10T02:57:49.851Z,54
2023-03-10T02:59:29.611Z,54
2023-03-10T03:01:09.392Z,54
2023-03-10T03:02:49.132Z,54
2023-03-10T03:04:28.945Z,54
2023-03-10T03:06:08.665Z,54
2023-03-10T03:07:48.443Z,54
2023-03-10T03:09:28.193Z,54
2023-03-10T03:11:07.949Z,54
2023-03-10T03:12:47.717Z,54
2023-03-10T03:14:27.494Z,54
2023-03-10T03:16:07.256Z,54
2023-03-10T03:17:47.002Z,54
2023-03-10T03:19:26.786Z,55
2023-03-10T03:21:06.570Z,54
2023-03-10T03:22:46.300Z,54
2023-03-10T03:24:26.060Z,54
2023-03-10T03:26:05.858Z,54
2023-03-10T03:27:45.605Z,54
2023-03-10T03:29:25.383Z,54
2023-03-10T03:31:05.110Z,54
2023-03-10T03:32:44.873Z,54
2023-03-10T03:34:24.700Z,54
2023-03-10T03:36:04.468Z,54
2023-03-10T03:37:44.177Z,54
2023-03-10T03:39:23.990Z,54
2023-03-10T03:41:03.727Z,54
2023-03-10T03:42:43.468Z,54
2023-03-10T03:44:23.228Z,55
2023-03-10T03:46:02.984Z,54
2023-03-10T03:47:42.750Z,54
2023-03-10T03:49:22.515Z,54
2023-03-10T03:51:02.338Z,54
2023-03-10T03:52:42.094Z,54
2023-03-10T03:54:21.818Z,54
2023-03-10T03:56:01.591Z,54
2023-03-10T03:57:41.344Z,54
2023-03-10T03:59:21.134Z,54
2023-03-10T04:01:00.894Z,54
2023-03-10T04:02:40.630Z,54
2023-03-10T04:04:20.417Z,54
2023-03-10T04:06:00.166Z,54
2023-03-10T04:07:39.926Z,54
2023-03-10T04:09:19.698Z,54
2023-03-10T04:10:59.457Z,54
2023-03-10T04:12:39.224Z,54
2023-03-10T04:14:18.993Z,54
2023-03-10T04:15:58.766Z,54
2023-03-10T04:17:38.504Z,55
2023-03-10T04:19:18.276Z,55
2023-03-10T04:20:58.025Z,54
2023-03-10T04:22:37.801Z,54
2023-03-10T04:24:17.561Z,54
2023-03-10T04:25:57.334Z,54
2023-03-10T04:27:37.088Z,54
2023-03-10T04:29:16.869Z,54
2023-03-10T04:30:56.618Z,54
2023-03-10T04:32:36.380Z,54
2023-03-10T04:34:16.147Z,54
2023-03-10T04:35:55.942Z,54
2023-03-10T04:37:35.706Z,54
2023-03-10T04:39:15.443Z,54
2023-03-10T04:40:55.210Z,54
2023-03-10T04:42:34.963Z,54
2023-03-10T04:44:14.724Z,54
2023-03-10T04:45:54.493Z,54
2023-03-10T04:47:34.273Z,54
2023-03-10T04:49:14.014Z,54
2023-03-10T04:50:53.783Z,54
2023-03-10T04:52:33.552Z,54
2023-03-10T04:54:13.341Z,54
2023-03-10T04:55:53.084Z,54
2023-03-10T04:57:32.843Z,54
2023-03-10T04:59:12.604Z,54
2023-03-10T05:00:52.371Z,55
2023-03-10T05:02:32.142Z,54
2023-03-10T05:04:11.897Z,54
2023-03-10T05:05:51.667Z,54
2023-03-10T05:07:31.416Z,54
2023-03-10T05:09:11.205Z,54
2023-03-10T05:10:50.976Z,54
2023-03-10T05:12:30.701Z,54
2023-03-10T05:14:10.508Z,54
2023-03-10T05:15:50.236Z,54
2023-03-10T05:17:30.014Z,54
2023-03-10T05:19:09.760Z,55
2023-03-10T05:20:49.529Z,54
2023-03-10T05:22:29.300Z,54
2023-03-10T05:24:09.061Z,54
2023-03-10T05:25:48.832Z,54
2023-03-10T05:27:28.645Z,54
2023-03-10T05:29:08.341Z,54
2023-03-10T05:30:48.160Z,55
2023-03-10T05:32:27.884Z,55
2023-03-10T05:34:07.664Z,55
2023-03-10T05:35:47.526Z,55
2023-03-10T05:37:27.171Z,55
2023-03-10T05:39:06.946Z,54
2023-03-10T05:40:46.726Z,55
2023-03-10T05:42:26.462Z,55
2023-03-10T05:44:06.234Z,55
2023-03-10T05:45:45.997Z,55
2023-03-10T05:47:25.843Z,55
2023-03-10T05:49:05.518Z,55
2023-03-10T05:50:45.298Z,55
2023-03-10T05:52:25.054Z,55
2023-03-10T05:54:04.805Z,55
2023-03-10T05:55:44.620Z,55
2023-03-10T05:57:24.371Z,55
2023-03-10T05:59:04.097Z,55
2023-03-10T06:00:43.846Z,56
2023-03-10T06:02:23.622Z,56
2023-03-10T06:04:03.467Z,56
2023-03-10T06:05:43.163Z,56
2023-03-10T06:07:22.953Z,55
2023-03-10T06:09:02.686Z,55
2023-03-10T06:10:42.438Z,56
2023-03-10T06:12:22.204Z,56
2023-03-10T06:14:01.970Z,56
2023-03-10T06:15:41.746Z,56
2023-03-10T06:17:21.505Z,55
2023-03-10T06:19:01.301Z,55
2023-03-10T06:20:41.022Z,56
2023-03-10T06:22:20.792Z,56
2023-03-10T06:24:00.554Z,55
2023-03-10T06:25:40.329Z,55
2023-03-10T06:27:20.077Z,56
2023-03-10T06:28:59.854Z,56
2023-03-10T06:30:39.611Z,56
2023-03-10T06:32:19.380Z,56
2023-03-10T06:33:59.139Z,56
2023-03-10T06:35:38.925Z,56
2023-03-10T06:37:18.675Z,56
2023-03-10T06:38:58.491Z,56
2023-03-10T06:40:38.191Z,57
2023-03-10T06:42:17.958Z,57
2023-03-10T06:43:57.744Z,57
2023-03-10T06:45:37.485Z,58
2023-03-10T06:47:17.248Z,58
2023-03-10T06:48:57.037Z,57
2023-03-10T06:50:36.792Z,57
2023-03-10T06:52:16.554Z,57
2023-03-10T06:53:56.321Z,56
2023-03-10T06:55:36.079Z,57
2023-03-10T06:57:15.831Z,57
2023-03-10T06:58:55.594Z,57
2023-03-10T07:00:35.373Z,58
2023-03-10T07:02:15.124Z,57
2023-03-10T07:03:54.898Z,57
2023-03-10T07:05:34.654Z,58
2023-03-10T07:07:14.418Z,58
2023-03-10T07:08:54.189Z,58
2023-03-10T07:10:33.946Z,58
2023-03-10T07:12:13.753Z,60
2023-03-10T07:13:53.481Z,60
2023-03-10T07:15:33.278Z,61
2023-03-10T07:17:13.012Z,62
2023-03-10T07:18:52.761Z,63
2023-03-10T07:20:32.521Z,63
2023-03-10T07:22:12.315Z,64
2023-03-10T07:23:52.058Z,64
2023-03-10T07:25:31.816Z,66
2023-03-10T07:27:11.588Z,67
2023-03-10T07:28:51.339Z,68
2023-03-10T07:30:31.114Z,70
2023-03-10T07:32:10.868Z,69
2023-03-10T07:33:50.627Z,70
2023-03-10T07:35:30.391Z,71
2023-03-10T07:37:10.198Z,72
2023-03-10T07:38:50.008Z,74
2023-03-10T07:40:29.683Z,74
2023-03-10T07:42:09.571Z,75
2023-03-10T07:43:49.213Z,77
2023-03-10T07:45:28.972Z,80
2023-03-10T07:47:08.747Z,81
2023-03-10T07:48:48.514Z,83
2023-03-10T07:50:28.282Z,83
2023-03-10T07:52:08.056Z,82
2023-03-10T07:53:47.850Z,83
2023-03-10T07:55:27.576Z,85
2023-03-10T07:57:07.387Z,87
2023-03-10T07:58:47.089Z,93
2023-03-10T08:00:26.945Z,97
2023-03-10T08:02:06.717Z,100
2023-03-10T08:03:46.494Z,99
2023-03-10T08:05:26.151Z,99
2023-03-10T08:07:05.958Z,98
2023-03-10T08:08:45.697Z,100
2023-03-10T08:10:25.594Z,100
2023-03-10T08:12:05.198Z,100
2023-03-10T08:13:45.022Z,100
2023-03-10T08:15:24.741Z,100
2023-03-10T08:17:04.500Z,100
2023-03-10T08:18:44.289Z,100
2023-03-10T08:20:24.044Z,100
2023-03-10T08:22:03.824Z,100
2023-03-10T08:23:43.709Z,100
2023-03-10T08:25:23.376Z,100
2023-03-10T08:27:03.097Z,100
2023-03-10T08:28:42.857Z,100
2023-03-10T08:30:22.762Z,100
2023-03-10T08:32:02.384Z,100
2023-03-10T08:33:42.263Z,100
2023-03-10T08:35:21.903Z,100
2023-03-10T08:37:01.693Z,100
2023-03-10T08:38:41.444Z,100
2023-03-10T08:40:21.201Z,100
2023-03-10T08:42:00.962Z,100
2023-03-10T08:43:40.719Z,100
2023-03-10T08:45:20.516Z,100
2023-03-10T08:47:00.278Z,100
2023-03-10T08:48:40.030Z,100
2023-03-10T08:50:19.795Z,100
2023-03-10T08:51:59.558Z,100
2023-03-10T08:53:39.448Z,100
2023-03-10T08:55:19.089Z,100
2023-03-10T08:56:58.850Z,100
2023-03-10T08:58:38.639Z,100
2023-03-10T09:00:18.407Z,100
2023-03-10T09:01:58.186Z,100
2023-03-10T09:03:38.008Z,100
2023-03-10T09:05:17.697Z,100
2023-03-10T09:06:57.486Z,100
2023-03-10T09:08:37.286Z,100
2023-03-10T09:10:16.985Z,100
2023-03-10T09:11:56.777Z,100
2023-03-10T09:13:36.556Z,100
2023-03-10T09:15:16.284Z,100
2023-03-10T09:16:56.048Z,100
2023-03-10T09:18:35.811Z,100
2023-03-10T09:20:15.575Z,100
2023-03-10T09:21:55.357Z,100
2023-03-10T09:23:35.112Z,100
2023-03-10T09:25:14.893Z,100
2023-03-10T09:26:54.750Z,100
2023-03-10T09:28:34.516Z,100
2023-03-10T09:30:14.206Z,100
2023-03-10T09:31:53.955Z,100
2023-03-10T09:33:33.702Z,100
2023-03-10T09:35:13.461Z,100
2023-03-10T09:36:53.242Z,100
2023-03-10T09:38:33.181Z,100
2023-03-10T09:40:12.820Z,100
2023-03-10T09:41:52.531Z,100
2023-03-10T09:43:32.286Z,100
2023-03-10T09:45:12.065Z,100
2023-03-10T09:46:51.831Z,100
2023-03-10T09:48:31.600Z,100
2023-03-10T09:50:11.375Z,100
2023-03-10T09:51:51.131Z,100
2023-03-10T09:53:30.986Z,100
2023-03-10T09:55:10.639Z,100
2023-03-10T09:56:50.420Z,100
2023-03-10T09:58:30.184Z,100
2023-03-10T10:00:09.964Z,100
2023-03-10T10:01:49.709Z,100
2023-03-10T10:03:29.454Z,100
2023-03-10T10:05:09.222Z,100
2023-03-10T10:06:48.984Z,100
2023-03-10T10:08:28.760Z,100
2023-03-10T10:10:08.615Z,100
2023-03-10T10:11:48.339Z,100
2023-03-10T10:13:28.048Z,100
2023-03-10T10:15:07.949Z,100
2023-03-10T10:16:47.719Z,100
2023-03-10T10:18:27.418Z,100
2023-03-10T10:20:07.234Z,100
2023-03-10T10:21:46.918Z,100
2023-03-10T10:23:26.620Z,100
2023-03-10T10:25:06.395Z,100
2023-03-10T10:26:46.154Z,100
2023-03-10T10:28:25.928Z,100
2023-03-10T10:30:05.684Z,100
2023-03-10T10:31:45.457Z,100
2023-03-10T10:33:25.211Z,100
2023-03-10T10:35:04.969Z,99
2023-03-10T10:36:44.741Z,98
2023-03-10T10:38:24.658Z,98
2023-03-10T10:40:04.262Z,100
2023-03-10T10:41:44.086Z,99
2023-03-10T10:43:23.823Z,97
2023-03-10T10:45:03.567Z,97
2023-03-10T10:46:43.360Z,100
2023-03-10T10:48:23.170Z,100
2023-03-10T10:50:02.870Z,100
2023-03-10T10:51:42.610Z,98
2023-03-10T10:53:22.377Z,100
2023-03-10T10:55:02.161Z,100
2023-03-10T10:56:41.927Z,97
2023-03-10T10:58:21.667Z,100
2023-03-10T11:00:01.447Z,100
2023-03-10T11:01:41.227Z,100
2023-03-10T11:03:20.968Z,97
2023-03-10T11:05:00.835Z,98
2023-03-10T11:06:40.496Z,99
2023-03-10T11:08:20.276Z,100
2023-03-10T11:10:00.034Z,100
2023-03-10T11:11:39.813Z,100
2023-03-10T11:13:19.611Z,99
2023-03-10T11:14:59.313Z,99
2023-03-10T11:16:39.088Z,98
2023-03-10T11:18:18.848Z,97
2023-03-10T11:19:58.636Z,100
2023-03-10T11:21:38.426Z,97
2023-03-10T11:23:18.200Z,97
2023-03-10T11:24:57.901Z,100
2023-03-10T11:26:37.677Z,97
2023-03-10T11:28:17.457Z,98
2023-03-10T11:29:57.212Z,98
2023-03-10T11:31:37.031Z,100
2023-03-10T11:33:16.777Z,100
2023-03-10T11:34:56.483Z,99
2023-03-10T11:36:36.269Z,99
2023-03-10T11:38:16.103Z,98
2023-03-10T11:39:55.854Z,99
2023-03-10T11:41:35.543Z,99
2023-03-10T11:43:15.299Z,97
2023-03-10T11:44:55.071Z,98
2023-03-10T11:46:34.830Z,100
2023-03-10T11:48:14.611Z,97
2023-03-10T11:49:54.357Z,98
2023-03-10T11:51:34.134Z,98
2023-03-10T11:53:14.066Z,98
2023-03-10T11:54:53.750Z,97
2023-03-10T11:56:33.442Z,99
2023-03-10T11:58:13.181Z,98
2023-03-10T11:59:53.041Z,98
2023-03-10T12:01:32.700Z,98
2023-03-10T12:03:12.462Z,97
2023-03-10T12:04:52.272Z,100
2023-03-10T12:06:32.003Z,98
2023-03-10T12:08:11.797Z,98
2023-03-10T12:09:51.541Z,97
2023-03-10T12:11:31.306Z,99
2023-03-10T12:13:11.080Z,99
2023-03-10T12:14:50.857Z,100
2023-03-10T12:16:30.608Z,100
2023-03-10T12:18:10.358Z,100
2023-03-10T12:19:50.114Z,100
2023-03-10T12:21:29.853Z,100
2023-03-10T12:23:09.693Z,100
2023-03-10T12:24:49.386Z,100
2023-03-10T12:26:29.166Z,100
2023-03-10T12:28:08.929Z,100
2023-03-10T12:29:48.680Z,100
2023-03-10T12:31:28.452Z,100
2023-03-10T12:33:08.207Z,100
2023-03-10T12:34:47.985Z,99
2023-03-10T12:36:27.746Z,100
2023-03-10T12:38:07.513Z,98
2023-03-10T12:39:47.357Z,99
2023-03-10T12:41:27.049Z,100
2023-03-10T12:43:06.857Z,100
2023-03-10T12:44:46.592Z,100
2023-03-10T12:46:26.329Z,98
2023-03-10T12:48:06.144Z,98
2023-03-10T12:49:45.927Z,98
2023-03-10T12:51:25.613Z,100
2023-03-10T12:53:05.465Z,97
2023-03-10T12:54:45.191Z,100
2023-03-10T12:56:24.926Z,100
2023-03-10T12:58:04.785Z,100
2023-03-10T12:59:44.453Z,99
2023-03-10T13:01:24.199Z,98
2023-03-10T13:03:03.960Z,97
2023-03-10T13:04:43.732Z,99
2023-03-10T13:06:23.624Z,100
2023-03-10T13:08:03.254Z,100
2023-03-10T13:09:43.114Z,100
2023-03-10T13:11:22.937Z,99
2023-03-10T13:13:02.549Z,98
2023-03-10T13:14:42.331Z,100
2023-03-10T13:16:22.090Z,100
2023-03-10T13:18:01.847Z,100
2023-03-10T13:19:41.653Z,98
2023-03-10T13:21:21.374Z,100
2023-03-10T13:23:01.147Z,97
2023-03-10T13:24:40.961Z,100
2023-03-10T13:26:20.658Z,99
2023-03-10T13:28:00.423Z,100
2023-03-10T13:29:40.206Z,97
2023-03-10T13:31:19.956Z,100
2023-03-10T13:32:59.748Z,98
2023-03-10T13:34:39.531Z,100
2023-03-10T13:36:19.241Z,100
2023-03-10T13:37:59.000Z,100
2023-03-10T13:39:38.768Z,98
2023-03-10T13:41:18.530Z,99
2023-03-10T13:42:58.358Z,99
2023-03-10T13:44:38.066Z,100
2023-03-10T13:46:17.836Z,97
2023-03-10T13:47:57.627Z,100
2023-03-10T13:49:37.358Z,100
2023-03-10T13:51:17.128Z,100
2023-03-10T13:52:56.905Z,100
2023-03-10T13:54:36.650Z,100
2023-03-10T13:56:16.449Z,98
2023-03-10T13:57:56.196Z,99
2023-03-10T13:59:35.948Z,98
2023-03-10T14:01:15.746Z,99
2023-03-10T14:02:55.485Z,100
2023-03-10T14:04:35.236Z,100
2023-03-10T14:06:15.040Z,97
2023-03-10T14:07:54.759Z,98
2023-03-10T14:09:34.531Z,100
2023-03-10T14:11:14.285Z,100
2023-03-10T14:12:54.086Z,100
2023-03-10T14:14:33.845Z,100
2023-03-10T14:16:13.569Z,98
2023-03-10T14:17:53.347Z,100
2023-03-10T14:19:33.113Z,98
2023-03-10T14:21:12.877Z,97
2023-03-10T14:22:52.644Z,98
2023-03-10T14:24:32.416Z,97
2023-03-10T14:26:12.181Z,99
2023-03-10T14:27:51.923Z,97
2023-03-10T14:29:31.675Z,97
2023-03-10T14:31:11.436Z,100
2023-03-10T14:32:51.222Z,99
2023-03-10T14:34:31.046Z,98
2023-03-10T14:36:10.820Z,100
2023-03-10T14:37:50.550Z,100
2023-03-10T14:39:30.277Z,100
2023-03-10T14:41:10.099Z,100
2023-03-10T14:42:49.789Z,97
2023-03-10T14:44:29.555Z,99
2023-03-10T14:46:09.333Z,99
2023-03-10T14:47:49.093Z,99
2023-03-10T14:49:28.998Z,99
2023-03-10T14:51:08.619Z,98
2023-03-10T14:52:48.380Z,100
2023-03-10T14:54:28.136Z,98
2023-03-10T14:56:07.930Z,100
2023-03-10T14:57:47.667Z,100
2023-03-10T14:59:27.425Z,97
2023-03-10T15:01:07.264Z,98
2023-03-10T15:02:47.004Z,98
2023-03-10T15:04:26.728Z,100
2023-03-10T15:06:06.485Z,100
2023-03-10T15:07:46.273Z,97
2023-03-10T15:09:26.008Z,100
2023-03-10T15:11:05.785Z,98
2023-03-10T15:12:45.559Z,100
2023-03-10T15:14:25.307Z,100
2023-03-10T15:16:05.108Z,100
2023-03-10T15:17:45.025Z,98
2023-03-10T15:19:24.837Z,100
2023-03-10T15:21:04.434Z,100
2023-03-10T15:22:44.188Z,99
2023-03-10T15:24:23.991Z,100
2023-03-10T15:26:03.729Z,84
2023-03-10T15:27:43.425Z,78
2023-03-10T15:29:23.273Z,77
2023-03-10T15:31:03.057Z,75
2023-03-10T15:32:42.729Z,74
2023-03-10T15:34:22.545Z,73
2023-03-10T15:36:02.280Z,72
2023-03-10T15:37:42.009Z,72
2023-03-10T15:39:21.771Z,72
2023-03-10T15:41:01.558Z,73
2023-03-10T15:42:41.292Z,72
2023-03-10T15:44:21.118Z,71
2023-03-10T15:46:01.010Z,71
2023-03-10T15:47:40.732Z,72
2023-03-10T15:49:20.349Z,72
2023-03-10T15:51:00.104Z,72
2023-03-10T15:52:39.891Z,72
2023-03-10T15:54:19.691Z,71
2023-03-10T15:55:59.412Z,71
2023-03-10T15:57:39.173Z,71
2023-03-10T15:59:18.957Z,71
2023-03-10T16:00:58.709Z,70
2023-03-10T16:02:38.500Z,70
2023-03-10T16:04:18.312Z,70
2023-03-10T16:05:58.082Z,70
2023-03-10T16:07:37.764Z,70
2023-03-10T16:09:17.524Z,70
2023-03-10T16:10:57.301Z,70
2023-03-10T16:12:37.115Z,70
2023-03-10T16:14:16.828Z,70
2023-03-10T16:15:56.580Z,71
2023-03-10T16:17:36.376Z,70
2023-03-10T16:19:16.110Z,70
2023-03-10T16:20:55.930Z,70
2023-03-10T16:22:35.635Z,70
2023-03-10T16:24:15.391Z,69
2023-03-10T16:25:55.144Z,69
2023-03-10T16:27:34.916Z,69
2023-03-10T16:29:14.736Z,69
2023-03-10T16:30:54.438Z,69
2023-03-10T16:32:34.232Z,69
2023-03-10T16:34:14.005Z,68
2023-03-10T16:35:53.805Z,68
2023-03-10T16:37:33.528Z,68
2023-03-10T16:39:13.269Z,68
2023-03-10T16:40:53.017Z,68
2023-03-10T16:42:32.795Z,68
2023-03-10T16:44:12.584Z,68
2023-03-10T16:45:52.332Z,68
2023-03-10T16:47:32.079Z,68
2023-03-10T16:49:11.865Z,68
2023-03-10T16:50:51.678Z,68
2023-03-10T16:52:31.450Z,68
2023-03-10T16:54:11.150Z,67
2023-03-10T16:55:50.903Z,67
2023-03-10T16:57:30.681Z,67
2023-03-10T16:59:10.431Z,67
2023-03-10T17:00:50.202Z,67
2023-03-10T17:02:29.974Z,67
2023-03-10T17:04:09.733Z,67
2023-03-10T17:05:49.487Z,67
2023-03-10T17:07:29.270Z,67
2023-03-10T17:09:09.009Z,67
2023-03-10T17:10:48.786Z,67
2023-03-10T17:12:28.568Z,67
2023-03-10T17:14:08.317Z,67
2023-03-10T17:15:48.219Z,66
2023-03-10T17:17:27.988Z,67
2023-03-10T17:19:07.773Z,66
2023-03-10T17:20:47.405Z,66
2023-03-10T17:22:27.277Z,67
2023-03-10T17:24:06.906Z,66
2023-03-10T17:25:46.877Z,66
2023-03-10T17:27:26.575Z,66
2023-03-10T17:29:06.385Z,66
2023-03-10T17:30:46.095Z,66
2023-03-10T17:32:25.705Z,66
2023-03-10T17:34:05.652Z,66
2023-03-10T17:35:45.284Z,66
2023-03-10T17:37:25.128Z,66
2023-03-10T17:39:04.822Z,66
2023-03-10T17:40:44.628Z,66
2023-03-10T17:42:24.473Z,66
2023-03-10T17:44:04.168Z,66
2023-03-10T17:45:43.803Z,66
2023-03-10T17:47:23.586Z,66
2023-03-10T17:49:03.502Z,66
2023-03-10T17:50:43.224Z,66
2023-03-10T17:52:22.985Z,66
2023-03-10T17:54:02.632Z,66
2023-03-10T17:55:42.393Z,66
2023-03-10T17:57:22.171Z,65
2023-03-10T17:59:01.930Z,66
2023-03-10T18:00:41.727Z,66
2023-03-10T18:02:21.467Z,66
2023-03-10T18:04:01.232Z,65
2023-03-10T18:05:40.990Z,66
2023-03-10T18:07:20.777Z,66
2023-03-10T18:09:00.525Z,66
2023-03-10T18:10:40.279Z,65
2023-03-10T18:12:20.053Z,66
2023-03-10T18:13:59.803Z,65
2023-03-10T18:15:39.580Z,65
2023-03-10T18:17:19.347Z,66
2023-03-10T18:18:59.103Z,65
2023-03-10T18:20:38.863Z,66
2023-03-10T18:22:18.626Z,66
2023-03-10T18:23:58.381Z,65
2023-03-10T18:25:38.209Z,65
2023-03-10T18:27:17.924Z,65
2023-03-10T18:28:57.700Z,65
2023-03-10T18:30:37.446Z,65
2023-03-10T18:32:17.219Z,65
2023-03-10T18:33:56.975Z,65
2023-03-10T18:35:36.737Z,65
2023-03-10T18:37:16.490Z,65
2023-03-10T18:38:56.269Z,65
2023-03-10T18:40:36.011Z,65
2023-03-10T18:42:15.809Z,65
2023-03-10T18:43:55.563Z,65
2023-03-10T18:45:35.324Z,65
2023-03-10T18:47:15.082Z,65
2023-03-10T18:48:54.859Z,65
2023-03-10T18:50:34.616Z,65
2023-03-10T18:52:14.354Z,65
2023-03-10T18:53:54.138Z,65
2023-03-10T18:55:33.906Z,65
2023-03-10T18:57:13.652Z,65
2023-03-10T18:58:53.427Z,65
2023-03-10T19:00:33.187Z,65
2023-03-10T19:02:12.976Z,65
2023-03-10T19:03:52.720Z,65
2023-03-10T19:05:32.484Z,65
2023-03-10T19:07:12.250Z,65
2023-03-10T19:08:52.004Z,65
2023-03-10T19:10:31.784Z,65
2023-03-10T19:12:11.586Z,65
2023-03-10T19:13:51.329Z,65
2023-03-10T19:15:31.050Z,65
2023-03-10T19:17:10.827Z,65
2023-03-10T19:18:50.593Z,65
2023-03-10T19:20:30.350Z,64
2023-03-10T19:22:10.102Z,64
2023-03-10T19:23:49.885Z,64
2023-03-10T19:25:29.645Z,64
2023-03-10T19:27:09.409Z,64
2023-03-10T19:28:49.175Z,64
2023-03-10T19:30:28.935Z,64
2023-03-10T19:32:08.720Z,64
2023-03-10T19:33:48.474Z,64
2023-03-10T19:35:28.244Z,64
2023-03-10T19:37:07.990Z,64
2023-03-10T19:38:47.765Z,64
2023-03-10T19:40:27.542Z,64
2023-03-10T19:42:07.307Z,64
2023-03-10T19:43:47.041Z,64
2023-03-10T19:45:26.806Z,64
2023-03-10T19:47:06.573Z,64
2023-03-10T19:48:46.367Z,64
2023-03-10T19:50:26.107Z,64
2023-03-10T19:52:05.881Z,64
2023-03-10T19:53:45.650Z,64
2023-03-10T19:55:25.405Z,64
2023-03-10T19:57:05.161Z,64
2023-03-10T19:58:44.917Z,64
2023-03-10T20:00:24.686Z,64
2023-03-10T20:02:04.464Z,64
2023-03-10T20:03:44.207Z,64
2023-03-10T20:05:23.967Z,64
2023-03-10T20:07:03.734Z,64
2023-03-10T20:08:43.513Z,64
2023-03-10T20:10:23.277Z,64
2023-03-10T20:12:03.037Z,64
2023-03-10T20:13:42.861Z,63
2023-03-10T20:15:22.556Z,64
2023-03-10T20:17:02.347Z,64
2023-03-10T20:18:42.080Z,64
2023-03-10T20:20:21.841Z,64
2023-03-10T20:22:01.626Z,64
2023-03-10T20:23:41.381Z,64
2023-03-10T20:25:21.151Z,64
2023-03-10T20:27:00.902Z,64
2023-03-10T20:28:40.662Z,64
2023-03-10T20:30:20.508Z,64
2023-03-10T20:32:00.205Z,64
2023-03-10T20:33:39.965Z,64
2023-03-10T20:35:19.732Z,64
2023-03-10T20:36:59.506Z,64
2023-03-10T20:38:39.245Z,64
2023-03-10T20:40:19.024Z,64
2023-03-10T20:41:58.787Z,64
2023-03-10T20:43:38.544Z,64
2023-03-10T20:45:18.312Z,64
2023-03-10T20:46:58.077Z,64
2023-03-10T20:48:37.825Z,64
2023-03-10T20:50:17.622Z,63
2023-03-10T20:51:57.365Z,63
2023-03-10T20:53:37.122Z,63
2023-03-10T20:55:16.896Z,63
2023-03-10T20:56:56.652Z,63
2023-03-10T20:58:36.453Z,63
2023-03-10T21:00:16.191Z,64
2023-03-10T21:01:55.955Z,63
2023-03-10T21:03:35.713Z,64
2023-03-10T21:05:15.477Z,64
2023-03-10T21:06:55.232Z,64
2023-03-10T21:08:35.010Z,64
2023-03-10T21:10:14.761Z,64
2023-03-10T21:11:54.528Z,63
2023-03-10T21:13:34.276Z,63
2023-03-10T21:15:14.069Z,63
2023-03-10T21:16:53.847Z,63
2023-03-10T21:18:33.590Z,63
2023-03-10T21:20:13.406Z,63
2023-03-10T21:21:53.128Z,63
2023-03-10T21:23:32.883Z,63
2023-03-10T21:25:12.640Z,63
2023-03-10T21:26:52.419Z,63
2023-03-10T21:28:32.168Z,63
2023-03-10T21:30:11.934Z,63
2023-03-10T21:31:51.701Z,63
2023-03-10T21:33:31.458Z,63
2023-03-10T21:35:11.226Z,64
2023-03-10T21:36:51.010Z,64
2023-03-10T21:38:30.751Z,63
2023-03-10T21:40:10.536Z,63
2023-03-10T21:41:50.294Z,63
2023-03-10T21:43:30.069Z,63
2023-03-10T21:45:09.810Z,63
2023-03-10T21:46:49.587Z,63
2023-03-10T21:48:29.339Z,63
2023-03-10T21:50:09.117Z,63
2023-03-10T21:51:48.876Z,63
2023-03-10T21:53:28.642Z,63
2023-03-10T21:55:08.388Z,63
2023-03-10T21:56:48.186Z,63
2023-03-10T21:58:27.921Z,63
2023-03-10T22:00:07.685Z,63
2023-03-10T22:01:47.515Z,63
2023-03-10T22:03:27.213Z,63
2023-03-10T22:05:07.001Z,63
2023-03-10T22:06:46.736Z,63
2023-03-10T22:08:26.505Z,63
2023-03-10T22:10:06.272Z,63
2023-03-10T22:11:46.029Z,63
2023-03-10T22:13:25.808Z,63
2023-03-10T22:15:05.566Z,63
2023-03-10T22:16:45.312Z,63
2023-03-10T22:18:25.090Z,63
2023-03-10T22:20:04.847Z,63
2023-03-10T22:21:44.622Z,63
2023-03-10T22:23:24.403Z,63
2023-03-10T22:25:04.145Z,63
2023-03-10T22:26:43.903Z,63
2023-03-10T22:28:23.696Z,63
2023-03-10T22:30:03.426Z,63
2023-03-10T22:31:43.185Z,63
2023-03-10T22:33:22.953Z,63
2023-03-10T22:35:02.726Z,63
2023-03-10T22:36:42.495Z,63
2023-03-10T22:38:22.236Z,63
2023-03-10T22:40:02.017Z,63
2023-03-10T22:41:41.768Z,63
2023-03-10T22:43:21.537Z,63
2023-03-10T22:45:01.305Z,62
2023-03-10T22:46:41.067Z,63
2023-03-10T22:48:20.830Z,63
2023-03-10T22:50:00.604Z,62
2023-03-10T22:51:40.386Z,62
2023-03-10T22:53:20.132Z,63
2023-03-10T22:54:59.892Z,62
2023-03-10T22:56:39.656Z,63
2023-03-10T22:58:19.421Z,63
2023-03-10T22:59:59.169Z,62
2023-03-10T23:01:38.945Z,63
2023-03-10T23:03:18.707Z,62
2023-03-10T23:04:58.504Z,63
2023-03-10T23:06:38.235Z,63
2023-03-10T23:08:18.005Z,63
2023-03-10T23:09:57.764Z,63
2023-03-10T23:11:37.524Z,63
2023-03-10T23:13:17.307Z,63
2023-03-10T23:14:57.068Z,63
2023-03-10T23:16:36.826Z,63
2023-03-10T23:18:16.580Z,62
2023-03-10T23:19:56.347Z,62
2023-03-10T23:21:36.109Z,62
2023-03-10T23:23:15.938Z,63
2023-03-10T23:24:55.631Z,63
2023-03-10T23:26:35.388Z,62
2023-03-10T23:28:15.160Z,63
2023-03-10T23:29:54.921Z,62
2023-03-10T23:31:34.683Z,63
2023-03-10T23:33:14.450Z,63